createdAt,value
2019-01-16T00:00:43.846Z,7.56
2019-01-16T00:03:19.829Z,7.55
2019-01-16T00:05:56.727Z,7.55
2019-01-16T00:08:30.821Z,7.55
2019-01-16T00:11:07.864Z,7.55
2019-01-16T00:13:42.668Z,7.57
2019-01-16T00:16:17.611Z,7.58
2019-01-16T00:18:51.687Z,7.58
2019-01-16T00:21:25.783Z,7.60
2019-01-16T00:24:00.625Z,7.60
2019-01-16T00:27:37.461Z,7.60
2019-01-16T00:30:14.445Z,7.58
2019-01-16T00:32:53.301Z,7.58
2019-01-16T00:35:26.267Z,7.57
2019-01-16T00:38:02.278Z,7.59
2019-01-16T00:40:42.339Z,7.61
2019-01-16T00:43:20.343Z,7.62
2019-01-16T00:45:54.571Z,7.61
2019-01-16T00:48:27.546Z,7.60
2019-01-16T00:51:04.524Z,7.61
2019-01-16T00:53:48.348Z,7.61
2019-01-16T00:56:23.260Z,7.60
2019-01-16T00:58:57.148Z,7.63
2019-01-16T01:01:39.076Z,7.63
2019-01-16T01:04:15.031Z,7.63
2019-01-16T01:06:47.990Z,7.64
2019-01-16T01:09:20.972Z,7.65
2019-01-16T01:11:55.828Z,7.65
2019-01-16T01:15:30.775Z,7.66
2019-01-16T01:18:40.624Z,7.68
2019-01-16T01:21:08.178Z,7.68
2019-01-16T01:23:56.216Z,7.71
2019-01-16T01:26:30.300Z,7.71
2019-01-16T01:29:04.086Z,7.71
2019-01-16T01:31:38.964Z,7.71
2019-01-16T01:34:11.929Z,7.69
2019-01-16T01:36:46.748Z,7.70
2019-01-16T01:39:20.687Z,7.72
2019-01-16T01:41:54.833Z,7.70
2019-01-16T01:44:29.825Z,7.71
2019-01-16T01:47:12.886Z,7.72
2019-01-16T01:49:46.675Z,7.71
2019-01-16T01:52:21.498Z,7.72
2019-01-16T01:54:55.638Z,7.73
2019-01-16T01:58:32.328Z,7.75
2019-01-16T02:01:05.289Z,7.75
2019-01-16T02:03:43.315Z,7.75
2019-01-16T02:06:16.275Z,7.75
2019-01-16T02:08:56.181Z,7.76
2019-01-16T02:11:33.050Z,7.78
2019-01-16T02:14:11.012Z,7.77
2019-01-16T02:16:47.001Z,7.78
2019-01-16T02:19:21.852Z,7.79
2019-01-16T02:21:59.699Z,7.78
2019-01-16T02:24:33.940Z,7.77
2019-01-16T02:27:06.886Z,7.76
2019-01-16T02:29:39.850Z,7.78
2019-01-16T02:32:13.653Z,7.75
2019-01-16T02:34:51.711Z,7.77
2019-01-16T02:37:25.843Z,7.76
2019-01-16T02:39:59.918Z,7.76
2019-01-16T02:42:33.649Z,7.78
2019-01-16T02:45:12.668Z,7.78
2019-01-16T02:47:55.251Z,7.80
2019-01-16T02:50:29.800Z,7.77
2019-01-16T02:53:03.859Z,7.78
2019-01-16T02:56:39.586Z,7.78
2019-01-16T02:59:13.822Z,7.78
2019-01-16T03:01:46.791Z,7.78
2019-01-16T03:04:21.599Z,7.78
2019-01-16T03:06:57.609Z,7.78
2019-01-16T03:09:33.713Z,7.79
2019-01-16T03:12:07.762Z,7.79
2019-01-16T03:14:43.791Z,7.79
2019-01-16T03:17:16.783Z,7.79
2019-01-16T03:20:49.599Z,7.80
2019-01-16T03:23:22.557Z,7.77
2019-01-16T03:26:55.223Z,7.77
2019-01-16T03:29:29.443Z,7.74
2019-01-16T03:32:05.281Z,7.75
2019-01-16T03:34:40.271Z,7.76
2019-01-16T03:37:14.364Z,7.77
2019-01-16T03:39:48.351Z,7.78
2019-01-16T03:42:22.534Z,7.77
2019-01-16T03:44:59.528Z,7.78
2019-01-16T03:47:32.496Z,7.75
2019-01-16T03:51:10.310Z,7.74
2019-01-16T03:53:44.355Z,7.73
2019-01-16T03:56:18.550Z,7.72
2019-01-16T04:00:59.465Z,7.71
2019-01-16T04:03:33.679Z,7.65
2019-01-16T04:06:10.667Z,7.61
2019-01-16T04:08:45.559Z,7.60
2019-01-16T04:11:28.612Z,7.61
2019-01-16T04:14:04.562Z,7.62
2019-01-16T04:16:44.597Z,7.63
2019-01-16T04:19:21.870Z,7.63
2019-01-16T04:21:55.455Z,7.64
2019-01-16T04:24:33.403Z,7.63
2019-01-16T04:28:09.023Z,7.62
2019-01-16T04:30:43.205Z,7.57
2019-01-16T04:33:21.028Z,7.54
2019-01-16T04:35:58.980Z,7.56
2019-01-16T04:38:33.260Z,7.54
2019-01-16T04:41:39.669Z,7.52
2019-01-16T04:44:18.803Z,7.51
2019-01-16T04:46:52.914Z,7.50
2019-01-16T04:49:30.430Z,7.49
2019-01-16T04:52:00.262Z,7.51
2019-01-16T04:54:39.225Z,7.53
2019-01-16T04:57:13.191Z,7.52
2019-01-16T05:00:05.267Z,7.52
2019-01-16T05:02:51.319Z,7.50
2019-01-16T05:05:25.391Z,7.50
2019-01-16T05:08:01.308Z,7.49
2019-01-16T05:10:39.316Z,7.46
2019-01-16T05:13:24.383Z,7.46
2019-01-16T05:16:00.320Z,7.43
2019-01-16T05:20:39.135Z,7.41
2019-01-16T05:23:16.191Z,7.37
2019-01-16T05:25:51.063Z,7.34
2019-01-16T05:28:42.194Z,7.34
2019-01-16T05:31:16.149Z,7.32
2019-01-16T05:33:50.371Z,7.31
2019-01-16T05:36:25.898Z,7.29
2019-01-16T05:38:58.881Z,7.27
2019-01-16T05:43:36.649Z,7.28
2019-01-16T05:46:13.555Z,7.22
2019-01-16T05:48:54.498Z,7.20
2019-01-16T05:51:27.498Z,7.19
2019-01-16T05:56:04.411Z,7.19
2019-01-16T05:58:38.562Z,7.14
2019-01-16T06:01:16.437Z,7.13
2019-01-16T06:04:23.257Z,7.12
2019-01-16T06:06:57.464Z,7.12
2019-01-16T06:09:31.663Z,7.12
2019-01-16T06:12:11.607Z,7.13
2019-01-16T06:16:48.587Z,7.15
2019-01-16T06:19:23.551Z,7.24
2019-01-16T06:21:57.415Z,7.16
2019-01-16T06:24:33.235Z,7.13
2019-01-16T06:27:11.170Z,7.13
2019-01-16T06:29:47.154Z,7.15
2019-01-16T06:32:21.211Z,7.15
2019-01-16T06:35:52.984Z,7.16
2019-01-16T06:38:26.740Z,7.11
2019-01-16T06:42:05.381Z,7.10
2019-01-16T06:46:42.269Z,7.09
2019-01-16T06:49:18.269Z,7.06
2019-01-16T06:51:58.288Z,7.04
2019-01-16T06:54:32.397Z,7.03
2019-01-16T06:57:05.375Z,7.03
2019-01-16T06:59:38.473Z,7.04
2019-01-16T07:02:11.447Z,7.05
2019-01-16T07:04:45.605Z,7.07
2019-01-16T07:07:19.935Z,7.09
2019-01-16T07:09:54.149Z,7.10
2019-01-16T07:12:32.683Z,7.11
2019-01-16T07:15:06.758Z,7.19
2019-01-16T07:17:49.672Z,7.24
2019-01-16T07:22:29.985Z,7.44
2019-01-16T07:25:05.011Z,7.16
2019-01-16T07:27:41.066Z,7.15
2019-01-16T07:30:21.150Z,7.16
2019-01-16T07:33:53.743Z,7.15
2019-01-16T07:36:27.936Z,7.13
2019-01-16T07:39:03.911Z,7.15
2019-01-16T07:41:44.971Z,7.14
2019-01-16T07:44:20.984Z,7.13
2019-01-16T07:46:58.803Z,7.10
2019-01-16T07:49:33.614Z,7.09
2019-01-16T07:52:07.802Z,7.09
2019-01-16T07:54:43.635Z,7.09
2019-01-16T07:58:16.901Z,7.10
2019-01-16T08:00:55.883Z,7.08
2019-01-16T08:03:31.766Z,7.05
2019-01-16T08:06:05.743Z,7.06
2019-01-16T08:08:43.699Z,7.05
2019-01-16T08:11:17.507Z,7.02
2019-01-16T08:13:51.080Z,7.01
2019-01-16T08:16:30.011Z,6.99
2019-01-16T08:19:05.942Z,6.98
2019-01-16T08:21:39.989Z,6.96
2019-01-16T08:24:17.868Z,6.96
2019-01-16T08:26:56.799Z,6.96
2019-01-16T08:30:30.163Z,6.98
2019-01-16T08:33:04.252Z,6.95
2019-01-16T08:35:42.121Z,6.93
2019-01-16T08:38:15.072Z,6.93
2019-01-16T08:40:50.038Z,6.93
2019-01-16T08:43:27.997Z,6.92
2019-01-16T08:47:07.772Z,6.92
2019-01-16T08:50:42.897Z,6.90
2019-01-16T08:53:27.016Z,6.88
2019-01-16T08:56:06.970Z,6.89
2019-01-16T08:58:41.135Z,6.92
2019-01-16T09:02:17.097Z,6.95
2019-01-16T09:04:51.317Z,6.93
2019-01-16T09:07:25.425Z,6.94
2019-01-16T09:09:59.217Z,6.93
2019-01-16T09:13:36.086Z,6.93
2019-01-16T09:16:10.105Z,6.92
2019-01-16T09:18:44.383Z,6.91
2019-01-16T09:21:20.233Z,6.92
2019-01-16T09:23:54.352Z,6.94
2019-01-16T09:26:31.239Z,6.94
2019-01-16T09:29:05.444Z,6.94
2019-01-16T09:32:11.841Z,6.96
2019-01-16T09:34:46.731Z,6.95
2019-01-16T09:37:20.579Z,6.96
2019-01-16T09:39:56.457Z,6.97
2019-01-16T09:42:30.288Z,6.99
2019-01-16T09:45:04.387Z,7.05
2019-01-16T09:47:37.409Z,7.09
2019-01-16T09:50:11.598Z,7.15
2019-01-16T09:52:45.763Z,7.19
2019-01-16T09:55:18.812Z,7.22
2019-01-16T09:57:52.998Z,7.24
2019-01-16T10:00:37.956Z,7.24
2019-01-16T10:03:12.226Z,7.25
2019-01-16T10:05:46.453Z,7.24
2019-01-16T10:08:20.647Z,7.23
2019-01-16T10:10:54.608Z,7.26
2019-01-16T10:13:28.755Z,7.23
2019-01-16T10:16:08.593Z,7.24
2019-01-16T10:18:54.711Z,7.25
2019-01-16T10:21:27.704Z,7.28
2019-01-16T10:24:59.516Z,7.33
2019-01-16T10:27:33.661Z,7.43
2019-01-16T10:30:07.743Z,7.47
2019-01-16T10:32:44.594Z,7.53
2019-01-16T10:35:18.794Z,7.50
2019-01-16T10:39:58.910Z,7.48
2019-01-16T10:42:36.609Z,7.39
2019-01-16T10:45:11.247Z,7.37
2019-01-16T10:47:49.359Z,7.39
2019-01-16T10:50:23.455Z,7.43
2019-01-16T10:52:57.499Z,7.51
2019-01-16T10:55:33.446Z,7.57
2019-01-16T10:58:07.272Z,7.59
2019-01-16T11:00:41.385Z,7.64
2019-01-16T11:03:24.292Z,7.67
2019-01-16T11:05:58.488Z,7.67
2019-01-16T11:08:31.463Z,7.66
2019-01-16T11:11:07.372Z,7.64
2019-01-16T11:13:40.351Z,7.58
2019-01-16T11:16:14.485Z,7.56
2019-01-16T11:18:48.736Z,7.54
2019-01-16T11:21:24.581Z,7.55
2019-01-16T11:26:05.117Z,7.58
2019-01-16T11:28:39.383Z,7.50
2019-01-16T11:31:13.595Z,7.49
2019-01-16T11:33:47.696Z,7.47
2019-01-16T11:36:25.579Z,7.43
2019-01-16T11:40:04.592Z,7.42
2019-01-16T11:42:34.317Z,7.39
2019-01-16T11:45:08.140Z,7.37
2019-01-16T11:48:46.062Z,7.38
2019-01-16T11:51:19.609Z,7.36
2019-01-16T11:53:55.463Z,7.40
2019-01-16T11:56:31.319Z,7.42
2019-01-16T11:59:04.410Z,7.42
2019-01-16T12:01:39.249Z,7.46
2019-01-16T12:04:13.371Z,7.51
2019-01-16T12:08:52.070Z,7.55
2019-01-16T12:12:25.923Z,7.51
2019-01-16T12:15:00.359Z,7.45
2019-01-16T12:17:37.293Z,7.43
2019-01-16T12:20:27.702Z,7.43
2019-01-16T12:23:01.531Z,7.46
2019-01-16T12:25:40.337Z,7.45
2019-01-16T12:28:16.301Z,7.42
2019-01-16T12:30:50.375Z,7.40
2019-01-16T12:33:23.372Z,7.44
2019-01-16T12:35:56.350Z,7.54
2019-01-16T12:38:44.457Z,7.59
2019-01-16T12:42:16.500Z,7.57
2019-01-16T12:44:54.548Z,7.51
2019-01-16T12:49:33.331Z,7.51
2019-01-16T12:52:09.207Z,7.51
2019-01-16T12:54:43.466Z,7.50
2019-01-16T12:57:19.295Z,7.51
2019-01-16T12:59:53.144Z,7.48
2019-01-16T13:03:03.461Z,7.45
2019-01-16T13:05:37.470Z,7.39
2019-01-16T13:08:11.423Z,7.39
2019-01-16T13:10:45.639Z,7.39
2019-01-16T13:13:19.949Z,7.44
2019-01-16T13:15:52.936Z,7.46
2019-01-16T13:20:29.754Z,7.48
2019-01-16T13:23:03.768Z,7.46
2019-01-16T13:25:36.787Z,7.44
2019-01-16T13:28:11.410Z,7.45
2019-01-16T13:30:45.683Z,7.48
2019-01-16T13:33:28.735Z,7.46
2019-01-16T13:36:03.711Z,7.46
2019-01-16T13:38:41.714Z,7.44
2019-01-16T13:41:16.699Z,7.46
2019-01-16T13:43:50.783Z,7.46
2019-01-16T13:46:25.784Z,7.40
2019-01-16T13:48:59.876Z,7.34
2019-01-16T13:51:32.846Z,7.34
2019-01-16T13:54:07.005Z,7.35
2019-01-16T13:56:39.969Z,7.32
2019-01-16T13:59:14.100Z,7.33
2019-01-16T14:01:56.998Z,7.36
2019-01-16T14:05:29.794Z,7.36
2019-01-16T14:08:03.068Z,7.34
2019-01-16T14:10:38.923Z,7.31
2019-01-16T14:13:21.811Z,7.29
2019-01-16T14:15:55.894Z,7.29
2019-01-16T14:18:28.934Z,7.29
2019-01-16T14:21:35.371Z,7.33
2019-01-16T14:24:12.404Z,7.33
2019-01-16T14:26:49.372Z,7.32
2019-01-16T14:29:28.344Z,7.31
2019-01-16T14:32:01.320Z,7.28
2019-01-16T14:35:34.123Z,7.28
2019-01-16T14:39:07.048Z,7.29
2019-01-16T14:41:42.963Z,7.29
2019-01-16T14:44:16.911Z,7.30
2019-01-16T14:46:50.867Z,7.32
2019-01-16T14:49:26.899Z,7.35
2019-01-16T14:52:00.985Z,7.30
2019-01-16T14:54:35.078Z,7.26
2019-01-16T14:57:09.200Z,7.19
2019-01-16T14:59:46.183Z,7.15
2019-01-16T15:02:51.463Z,7.09
2019-01-16T15:05:31.372Z,7.04
2019-01-16T15:10:07.858Z,7.00
2019-01-16T15:12:46.867Z,6.92
2019-01-16T15:15:19.863Z,6.90
2019-01-16T15:17:59.819Z,6.90
2019-01-16T15:22:37.804Z,6.86
2019-01-16T15:25:12.202Z,6.81
2019-01-16T15:27:57.137Z,6.79
2019-01-16T15:30:35.382Z,6.76
2019-01-16T15:33:10.319Z,6.75
2019-01-16T15:35:44.156Z,6.74
2019-01-16T15:38:23.023Z,6.74
2019-01-16T15:40:57.264Z,6.72
2019-01-16T15:43:34.249Z,6.69
2019-01-16T15:46:08.242Z,6.69
2019-01-16T15:48:48.313Z,6.68
2019-01-16T15:51:22.608Z,6.68
2019-01-16T15:53:56.675Z,6.66
2019-01-16T15:56:30.963Z,6.67
2019-01-16T15:59:05.906Z,6.67
2019-01-16T16:01:59.972Z,6.65
2019-01-16T16:04:34.088Z,6.65
2019-01-16T16:07:08.163Z,6.64
2019-01-16T16:09:43.194Z,6.63
2019-01-16T16:12:36.324Z,6.62
2019-01-16T16:16:09.791Z,6.60
2019-01-16T16:18:46.798Z,6.58
2019-01-16T16:21:36.982Z,6.56
2019-01-16T16:24:11.898Z,6.57
2019-01-16T16:26:50.890Z,6.56
2019-01-16T16:29:41.031Z,6.57
2019-01-16T16:32:15.843Z,6.53
2019-01-16T16:34:55.357Z,6.52
2019-01-16T16:37:28.347Z,6.50
2019-01-16T16:40:02.378Z,6.48
2019-01-16T16:42:42.035Z,6.48
2019-01-16T16:46:20.059Z,6.46
2019-01-16T16:48:58.655Z,6.45
2019-01-16T16:51:32.484Z,6.42
2019-01-16T16:54:37.984Z,6.42
2019-01-16T16:57:21.272Z,6.41
2019-01-16T16:59:55.416Z,6.40
2019-01-16T17:02:28.536Z,6.41
2019-01-16T17:05:02.651Z,6.40
2019-01-16T17:07:36.736Z,6.38
2019-01-16T17:10:27.067Z,6.38
2019-01-16T17:13:02.916Z,6.38
2019-01-16T17:15:36.878Z,6.39
2019-01-16T17:18:11.833Z,6.40
2019-01-16T17:20:50.834Z,6.39
2019-01-16T17:23:24.903Z,6.38
2019-01-16T17:25:58.814Z,6.38
2019-01-16T17:28:34.745Z,6.37
2019-01-16T17:31:26.842Z,6.35
2019-01-16T17:34:00.820Z,6.35
2019-01-16T17:36:38.804Z,6.35
2019-01-16T17:40:14.513Z,6.34
2019-01-16T17:42:51.471Z,6.35
2019-01-16T17:47:30.298Z,6.32
2019-01-16T17:50:03.271Z,6.29
2019-01-16T17:52:39.000Z,6.28
2019-01-16T17:55:11.470Z,6.27
2019-01-16T17:57:44.446Z,6.29
2019-01-16T18:01:18.507Z,6.29
2019-01-16T18:04:50.377Z,6.30
2019-01-16T18:07:24.578Z,6.29
2019-01-16T18:09:58.655Z,6.29
2019-01-16T18:12:32.636Z,6.30
2019-01-16T18:15:08.507Z,6.31
2019-01-16T18:17:44.508Z,6.31
2019-01-16T18:20:19.354Z,6.32
2019-01-16T18:22:56.913Z,6.32
2019-01-16T18:26:35.172Z,6.34
2019-01-16T18:29:08.616Z,6.32
2019-01-16T18:31:42.756Z,6.31
2019-01-16T18:34:16.847Z,6.30
2019-01-16T18:36:49.916Z,6.33
2019-01-16T18:39:22.879Z,6.33
2019-01-16T18:42:59.897Z,6.34
2019-01-16T18:46:31.649Z,6.34
2019-01-16T18:49:12.704Z,6.33
2019-01-16T18:51:49.595Z,6.34
2019-01-16T18:54:34.713Z,6.34
2019-01-16T18:57:08.895Z,6.37
2019-01-16T19:00:49.631Z,6.39
2019-01-16T19:03:25.642Z,6.36
2019-01-16T19:05:59.907Z,6.36
2019-01-16T19:09:08.394Z,6.37
2019-01-16T19:11:47.356Z,6.35
2019-01-16T19:14:23.511Z,6.37
2019-01-16T19:16:56.467Z,6.38
2019-01-16T19:19:34.357Z,6.39
2019-01-16T19:22:07.351Z,6.41
2019-01-16T19:24:43.316Z,6.41
2019-01-16T19:27:23.347Z,6.41
2019-01-16T19:32:03.159Z,6.41
2019-01-16T19:34:38.120Z,6.36
2019-01-16T19:37:12.166Z,6.33
2019-01-16T19:39:46.231Z,6.33
2019-01-16T19:42:25.172Z,6.35
2019-01-16T19:44:58.173Z,6.36
2019-01-16T19:47:34.991Z,6.36
2019-01-16T19:50:10.202Z,6.37
2019-01-16T19:53:04.520Z,6.37
2019-01-16T19:56:03.712Z,6.39
2019-01-16T19:59:37.746Z,6.37
2019-01-16T20:02:11.951Z,6.37
2019-01-16T20:04:46.143Z,6.36
2019-01-16T20:07:23.501Z,6.36
2019-01-16T20:10:57.355Z,6.36
2019-01-16T20:13:35.330Z,6.36
2019-01-16T20:16:09.425Z,6.35
2019-01-16T20:18:43.215Z,6.33
2019-01-16T20:21:20.067Z,6.34
2019-01-16T20:23:59.160Z,6.34
2019-01-16T20:27:08.631Z,6.34
2019-01-16T20:29:42.848Z,6.33
2019-01-16T20:32:25.868Z,6.34
2019-01-16T20:35:16.074Z,6.33
2019-01-16T20:37:50.222Z,6.33
2019-01-16T20:40:24.098Z,6.32
2019-01-16T20:42:58.464Z,6.31
2019-01-16T20:45:35.458Z,6.32
2019-01-16T20:49:12.219Z,6.31
2019-01-16T20:51:46.892Z,6.29
2019-01-16T20:55:18.725Z,6.29
2019-01-16T20:58:53.723Z,6.28
2019-01-16T21:01:26.683Z,6.26
2019-01-16T21:04:04.736Z,6.23
2019-01-16T21:06:38.930Z,6.24
2019-01-16T21:09:13.456Z,6.24
2019-01-16T21:12:51.375Z,6.24
2019-01-16T21:15:27.388Z,6.23
2019-01-16T21:18:01.656Z,6.23
2019-01-16T21:20:35.552Z,6.23
2019-01-16T21:23:08.514Z,6.25
2019-01-16T21:25:43.464Z,6.25
2019-01-16T21:28:32.718Z,6.26
2019-01-16T21:31:09.435Z,6.26
2019-01-16T21:33:46.703Z,6.27
2019-01-16T21:37:19.771Z,6.29
2019-01-16T21:39:53.841Z,6.28
2019-01-16T21:42:33.888Z,6.29
2019-01-16T21:47:10.895Z,6.29
2019-01-16T21:50:00.084Z,6.28
2019-01-16T21:52:37.523Z,6.28
2019-01-16T21:57:19.063Z,6.29
2019-01-16T21:59:56.027Z,6.28
2019-01-16T22:02:30.023Z,6.29
2019-01-16T22:05:05.831Z,6.31
2019-01-16T22:08:39.702Z,6.33
2019-01-16T22:11:16.646Z,6.38
2019-01-16T22:14:04.875Z,6.39
2019-01-16T22:16:38.825Z,6.39
2019-01-16T22:21:17.507Z,6.39
2019-01-16T22:24:51.394Z,6.37
2019-01-16T22:27:27.398Z,6.34
2019-01-16T22:30:01.291Z,6.35
2019-01-16T22:32:35.683Z,6.36
2019-01-16T22:35:27.092Z,6.38
2019-01-16T22:38:00.047Z,6.36
2019-01-16T22:40:38.042Z,6.39
2019-01-16T22:43:12.341Z,6.40
2019-01-16T22:45:47.269Z,6.39
2019-01-16T22:48:23.150Z,6.38
2019-01-16T22:51:02.123Z,6.38
2019-01-16T22:53:35.099Z,6.39
2019-01-16T22:56:09.398Z,6.42
2019-01-16T22:58:44.162Z,6.42
2019-01-16T23:01:20.323Z,6.42
2019-01-16T23:04:04.626Z,6.42
2019-01-16T23:06:43.621Z,6.44
2019-01-16T23:09:17.837Z,6.44
2019-01-16T23:11:52.083Z,6.44
2019-01-16T23:14:27.065Z,6.44
2019-01-16T23:17:12.107Z,6.43
2019-01-16T23:19:45.082Z,6.43
2019-01-16T23:23:16.866Z,6.43
2019-01-16T23:26:05.030Z,6.43
2019-01-16T23:28:42.072Z,6.39
2019-01-16T23:31:19.016Z,6.34
2019-01-16T23:35:55.455Z,6.28
2019-01-16T23:38:31.421Z,6.11
2019-01-16T23:41:05.551Z,6.05
2019-01-16T23:43:44.420Z,6.01
2019-01-16T23:46:18.344Z,6.01
2019-01-16T23:48:52.504Z,6.03
2019-01-16T23:51:26.276Z,6.05
2019-01-16T23:54:31.583Z,6.08
2019-01-16T23:57:05.768Z,6.10
